NCAR-RAP Real-Time Weather Data

Output produced by METARs form (10 April 2020  07:26 UTC)
found at http://weather.rap.ucar.edu/surface/
 
KRIC 100654Z 32009KT 10SM FEW110 09/M03 A2963 RMK AO2 SLP037 T00891033